createdAt,value
2019-02-25T00:04:40.737Z,22.23
2019-02-25T00:09:46.149Z,22.62
2019-02-25T00:14:51.503Z,21.70
2019-02-25T00:19:56.846Z,22.70
2019-02-25T00:25:02.215Z,22.48
2019-02-25T00:30:13.508Z,21.85
2019-02-25T00:35:19.067Z,21.95
2019-02-25T00:40:24.475Z,19.90
2019-02-25T00:45:29.888Z,20.77
2019-02-25T00:50:35.230Z,20.00
2019-02-25T00:55:40.648Z,22.27
2019-02-25T01:00:46.116Z,20.77
2019-02-25T01:05:51.535Z,19.62
2019-02-25T01:10:57.027Z,22.50
2019-02-25T01:16:02.512Z,19.00
2019-02-25T01:21:07.862Z,20.02
2019-02-25T01:26:13.215Z,19.50
2019-02-25T01:31:18.564Z,19.45
2019-02-25T01:36:23.899Z,19.50
2019-02-25T01:41:29.239Z,20.77
2019-02-25T01:46:34.591Z,19.70
2019-02-25T01:51:40.011Z,20.50
2019-02-25T01:56:45.357Z,19.67
2019-02-25T02:01:50.781Z,18.50
2019-02-25T02:06:56.219Z,18.73
2019-02-25T02:12:01.698Z,18.85
2019-02-25T02:17:07.063Z,20.48
2019-02-25T02:22:12.456Z,20.00
2019-02-25T02:27:17.868Z,18.82
2019-02-25T02:32:23.352Z,16.90
2019-02-25T02:37:28.765Z,17.13
2019-02-25T02:42:34.249Z,17.25
2019-02-25T02:47:48.691Z,16.77
2019-02-25T02:52:54.108Z,16.75
2019-02-25T02:57:59.534Z,18.17
2019-02-25T03:03:05.011Z,17.00
2019-02-25T03:08:10.401Z,17.37
2019-02-25T03:13:15.820Z,16.73
2019-02-25T03:18:21.231Z,16.65
2019-02-25T03:23:26.574Z,16.52
2019-02-25T03:28:31.904Z,15.45
2019-02-25T03:33:37.296Z,15.15
2019-02-25T03:38:42.719Z,15.18
2019-02-25T03:43:48.129Z,14.83
2019-02-25T03:48:53.466Z,15.10
2019-02-25T03:53:58.828Z,13.98
2019-02-25T03:59:04.348Z,15.58
2019-02-25T04:04:09.922Z,16.82
2019-02-25T04:09:15.339Z,16.07
2019-02-25T04:14:21.990Z,14.95
2019-02-25T04:19:27.403Z,15.93
2019-02-25T04:24:32.821Z,14.55
2019-02-25T04:29:38.172Z,15.98
2019-02-25T04:34:43.863Z,14.15
2019-02-25T04:39:50.171Z,14.68
2019-02-25T04:44:55.511Z,15.10
2019-02-25T04:50:00.868Z,14.58
2019-02-25T04:55:07.946Z,13.45
2019-02-25T05:00:15.534Z,14.05
2019-02-25T05:05:20.949Z,14.95
2019-02-25T05:10:26.455Z,16.87
2019-02-25T05:15:33.172Z,15.67
2019-02-25T05:20:38.742Z,15.48
2019-02-25T05:25:44.239Z,14.28
2019-02-25T05:30:50.771Z,15.63
2019-02-25T05:35:56.315Z,16.42
2019-02-25T05:41:01.882Z,16.60
2019-02-25T05:46:07.680Z,15.40
2019-02-25T05:51:13.054Z,13.08
2019-02-25T05:56:18.462Z,13.98
2019-02-25T06:01:24.844Z,13.78
2019-02-25T06:06:30.334Z,13.22
2019-02-25T06:11:35.686Z,16.07
2019-02-25T06:16:41.162Z,16.30
2019-02-25T06:21:47.577Z,15.98
2019-02-25T06:26:52.987Z,16.52
2019-02-25T06:31:58.331Z,16.87
2019-02-25T06:37:04.747Z,14.98
2019-02-25T06:42:10.076Z,14.23
2019-02-25T06:47:15.455Z,15.88
2019-02-25T06:52:20.956Z,16.50
2019-02-25T06:57:26.359Z,16.42
2019-02-25T07:02:31.725Z,16.73
2019-02-25T07:07:51.257Z,13.65
2019-02-25T07:13:16.483Z,16.05
2019-02-25T07:18:32.354Z,16.15
2019-02-25T07:23:55.914Z,17.42
2019-02-25T07:29:19.431Z,21.57
2019-02-25T07:34:38.720Z,17.57
2019-02-25T07:39:48.786Z,27.30
2019-02-25T07:45:07.718Z,22.25
2019-02-25T07:50:14.869Z,17.00
2019-02-25T07:55:24.863Z,18.87
2019-02-25T08:00:50.446Z,17.65
2019-02-25T08:06:06.563Z,20.72
2019-02-25T08:11:16.535Z,20.90
2019-02-25T08:16:32.634Z,23.22
2019-02-25T08:21:48.738Z,22.87
2019-02-25T08:27:01.363Z,21.42
2019-02-25T08:32:16.951Z,22.87
2019-02-25T08:37:27.031Z,22.93
2019-02-25T08:42:41.872Z,26.25
2019-02-25T08:47:49.370Z,28.92
2019-02-25T08:52:54.802Z,33.40
2019-02-25T08:58:00.285Z,24.50
2019-02-25T09:03:05.778Z,24.75
2019-02-25T09:08:11.119Z,25.32
2019-02-25T09:13:16.461Z,31.80
2019-02-25T09:18:21.889Z,25.23
2019-02-25T09:23:27.252Z,22.87
2019-02-25T09:28:32.672Z,25.23
2019-02-25T09:33:38.287Z,24.50
2019-02-25T09:38:43.850Z,26.20
2019-02-25T09:43:49.287Z,26.60
2019-02-25T09:48:55.151Z,27.67
2019-02-25T09:54:00.575Z,32.38
2019-02-25T09:59:06.077Z,25.00
2019-02-25T10:04:11.441Z,26.68
2019-02-25T10:09:17.277Z,26.25
2019-02-25T10:14:22.688Z,26.17
2019-02-25T10:19:28.114Z,26.93
2019-02-25T10:24:33.526Z,28.42
2019-02-25T10:29:38.960Z,27.58
2019-02-25T10:34:44.393Z,26.85
2019-02-25T10:39:51.495Z,29.07
2019-02-25T10:44:57.550Z,26.75
2019-02-25T10:50:05.267Z,28.10
2019-02-25T10:55:16.982Z,26.12
2019-02-25T11:00:22.661Z,26.75
2019-02-25T11:05:30.461Z,29.15
2019-02-25T11:10:44.121Z,28.65
2019-02-25T11:15:50.073Z,27.95
2019-02-25T11:20:55.615Z,27.42
2019-02-25T11:26:02.202Z,28.67
2019-02-25T11:31:07.903Z,26.60
2019-02-25T11:36:15.438Z,25.82
2019-02-25T11:41:20.455Z,23.85
2019-02-25T11:46:25.927Z,26.10
2019-02-25T11:51:31.300Z,26.57
2019-02-25T11:56:36.792Z,27.70
2019-02-25T12:01:42.424Z,24.43
2019-02-25T12:06:48.242Z,25.80
2019-02-25T12:11:53.986Z,23.92
2019-02-25T12:16:59.431Z,24.80
2019-02-25T12:22:04.995Z,24.80
2019-02-25T12:27:11.846Z,25.48
2019-02-25T12:32:17.451Z,22.15
2019-02-25T12:37:22.879Z,20.70
2019-02-25T12:42:28.217Z,21.35
2019-02-25T12:47:34.702Z,20.40
2019-02-25T12:52:40.172Z,17.02
2019-02-25T12:57:45.584Z,16.23
2019-02-25T13:02:51.018Z,15.83
2019-02-25T13:07:56.521Z,16.60
2019-02-25T13:13:01.866Z,16.95
2019-02-25T13:18:07.213Z,17.25
2019-02-25T13:23:12.828Z,16.60
2019-02-25T13:28:18.247Z,16.35
2019-02-25T13:33:25.156Z,16.70
2019-02-25T13:38:30.557Z,15.10
2019-02-25T13:43:36.053Z,13.13
2019-02-25T13:48:41.471Z,13.60
2019-02-25T13:53:46.910Z,15.38
2019-02-25T13:58:52.391Z,15.43
2019-02-25T14:03:57.841Z,17.17
2019-02-25T14:09:04.875Z,18.95
2019-02-25T14:14:11.985Z,18.55
2019-02-25T14:19:17.414Z,19.23
2019-02-25T14:24:23.402Z,20.32
2019-02-25T14:29:29.942Z,20.27
2019-02-25T14:34:35.450Z,21.90
2019-02-25T14:39:43.125Z,23.38
2019-02-25T14:44:49.964Z,25.57
2019-02-25T14:49:56.278Z,44.65
2019-02-25T14:55:04.102Z,25.72
2019-02-25T15:00:23.833Z,26.10
2019-02-25T15:05:29.119Z,27.77
2019-02-25T15:10:36.251Z,27.35
2019-02-25T15:15:44.077Z,28.20
2019-02-25T15:20:49.337Z,28.10
2019-02-25T15:25:54.863Z,30.02
2019-02-25T15:31:04.012Z,35.43
2019-02-25T15:36:08.551Z,45.33
2019-02-25T15:41:14.124Z,52.45
2019-02-25T15:46:22.202Z,47.03
2019-02-25T15:51:28.461Z,48.70
2019-02-25T15:56:34.344Z,42.98
2019-02-25T16:01:40.766Z,38.98
2019-02-25T16:06:46.400Z,50.58
2019-02-25T16:11:53.682Z,45.30
2019-02-25T16:16:59.230Z,42.98
2019-02-25T16:22:07.445Z,62.85
2019-02-25T16:27:11.986Z,81.40
2019-02-25T16:32:17.814Z,58.48
2019-02-25T16:37:26.860Z,48.52
2019-02-25T16:42:32.361Z,52.35
2019-02-25T16:47:39.184Z,54.13
2019-02-25T16:52:47.320Z,49.65
2019-02-25T16:57:54.227Z,47.85
2019-02-25T17:03:03.546Z,50.50
2019-02-25T17:08:10.714Z,51.77
2019-02-25T17:13:17.533Z,48.02
2019-02-25T17:18:23.110Z,38.42
2019-02-25T17:23:30.194Z,52.80
2019-02-25T17:28:35.898Z,53.48
2019-02-25T17:33:41.322Z,36.25
2019-02-25T17:38:47.616Z,32.70
2019-02-25T17:43:54.951Z,31.57
2019-02-25T17:49:01.119Z,36.30
2019-02-25T17:54:08.047Z,69.82
2019-02-25T17:59:13.863Z,44.48
2019-02-25T18:04:19.358Z,46.58
2019-02-25T18:09:24.952Z,40.20
2019-02-25T18:14:30.432Z,35.65
2019-02-25T18:19:36.007Z,39.73
2019-02-25T18:24:43.405Z,40.90
2019-02-25T18:29:50.349Z,41.90
2019-02-25T18:34:56.763Z,33.58
2019-02-25T18:40:03.461Z,40.48
2019-02-25T18:45:13.667Z,42.50
2019-02-25T18:50:24.100Z,40.73
2019-02-25T18:55:32.096Z,41.68
2019-02-25T19:00:44.659Z,42.83
2019-02-25T19:05:51.118Z,38.80
2019-02-25T19:10:57.363Z,43.40
2019-02-25T19:16:04.047Z,45.58
2019-02-25T19:21:10.943Z,45.35
2019-02-25T19:26:17.374Z,45.55
2019-02-25T19:31:23.903Z,49.38
2019-02-25T19:36:32.607Z,47.50
2019-02-25T19:41:38.074Z,44.20
2019-02-25T19:46:45.679Z,43.50
2019-02-25T19:51:52.678Z,41.48
2019-02-25T19:56:58.059Z,42.35
2019-02-25T20:02:03.781Z,42.13
2019-02-25T20:07:09.313Z,40.83
2019-02-25T20:12:16.292Z,42.78
2019-02-25T20:17:25.944Z,36.53
2019-02-25T20:22:30.174Z,73.47
2019-02-25T20:27:36.104Z,43.00
2019-02-25T20:32:42.897Z,44.85
2019-02-25T20:37:51.164Z,60.70
2019-02-25T20:42:56.441Z,53.05
2019-02-25T20:48:02.995Z,36.93
2019-02-25T20:53:10.987Z,41.15
2019-02-25T20:58:18.633Z,67.90
2019-02-25T21:03:25.420Z,33.45
2019-02-25T21:08:31.089Z,33.50
2019-02-25T21:13:38.085Z,31.37
2019-02-25T21:18:44.394Z,32.50
2019-02-25T21:23:50.798Z,34.27
2019-02-25T21:28:58.118Z,32.15
2019-02-25T21:34:03.332Z,29.45
2019-02-25T21:39:12.243Z,27.60
2019-02-25T21:44:19.512Z,25.27
2019-02-25T21:49:26.799Z,20.62
2019-02-25T21:54:32.111Z,22.22
2019-02-25T21:59:38.723Z,20.52
2019-02-25T22:04:45.379Z,20.75
2019-02-25T22:09:52.648Z,21.27
2019-02-25T22:14:58.073Z,21.00
2019-02-25T22:20:04.849Z,18.02
2019-02-25T22:25:22.061Z,17.92
2019-02-25T22:30:28.085Z,16.37
2019-02-25T22:35:37.369Z,16.40
2019-02-25T22:40:40.729Z,15.90
2019-02-25T22:45:46.258Z,14.73
2019-02-25T22:50:55.291Z,15.43
2019-02-25T22:55:58.690Z,13.95
2019-02-25T23:01:09.594Z,13.55
2019-02-25T23:06:18.256Z,12.18
2019-02-25T23:11:24.406Z,12.03
2019-02-25T23:16:30.737Z,12.37
2019-02-25T23:21:36.573Z,11.90
2019-02-25T23:26:43.165Z,11.18
2019-02-25T23:31:48.660Z,11.70
2019-02-25T23:36:55.786Z,11.65
2019-02-25T23:42:04.688Z,11.45
2019-02-25T23:47:08.890Z,12.35
2019-02-25T23:52:15.405Z,14.07
2019-02-25T23:57:21.658Z,12.73
